createdAt,value
2022-11-16T00:01:14.230Z,98674.66
2022-11-16T00:03:42.492Z,98678.09
2022-11-16T00:06:11.773Z,98678.06
2022-11-16T00:08:41.552Z,98669.50
2022-11-16T00:11:12.300Z,98662.63
2022-11-16T00:13:41.043Z,98654.03
2022-11-16T00:16:15.465Z,98654.91
2022-11-16T00:18:43.426Z,98652.34
2022-11-16T00:21:11.745Z,98632.59
2022-11-16T00:23:39.855Z,98642.03
2022-11-16T00:26:09.441Z,98639.47
2022-11-16T00:28:37.239Z,98630.00
2022-11-16T00:31:06.919Z,98630.00
2022-11-16T00:33:35.925Z,98629.16
2022-11-16T00:36:04.623Z,98631.72
2022-11-16T00:38:32.740Z,98629.13
2022-11-16T00:41:00.657Z,98621.41
2022-11-16T00:43:28.616Z,98626.56
2022-11-16T00:45:56.214Z,98622.28
2022-11-16T00:48:23.837Z,98630.84
2022-11-16T00:50:52.928Z,98638.53
2022-11-16T00:53:22.135Z,98641.97
2022-11-16T00:55:49.910Z,98642.84
2022-11-16T00:58:19.874Z,98638.56
2022-11-16T01:00:52.253Z,98638.50
2022-11-16T01:03:19.882Z,98632.50
2022-11-16T01:05:47.520Z,98636.78
2022-11-16T01:08:16.720Z,98638.50
2022-11-16T01:10:44.321Z,98636.81
2022-11-16T01:13:11.861Z,98640.25
2022-11-16T01:15:39.531Z,98634.25
2022-11-16T01:18:07.106Z,98643.69
2022-11-16T01:20:34.712Z,98640.25
2022-11-16T01:23:02.269Z,98636.81
2022-11-16T01:25:31.196Z,98638.56
2022-11-16T01:27:58.851Z,98636.84
2022-11-16T01:30:38.127Z,98635.09
2022-11-16T01:33:09.919Z,98634.28
2022-11-16T01:35:37.686Z,98636.00
2022-11-16T01:38:05.617Z,98633.41
2022-11-16T01:40:37.274Z,98635.97
2022-11-16T01:43:05.393Z,98622.25
2022-11-16T01:45:38.528Z,98617.13
2022-11-16T01:48:10.398Z,98625.69
2022-11-16T01:50:38.795Z,98620.53
2022-11-16T01:53:09.015Z,98626.56
2022-11-16T01:55:48.235Z,98611.97
2022-11-16T01:58:30.057Z,98611.09
2022-11-16T02:01:04.314Z,98612.81
2022-11-16T02:03:41.345Z,98617.97
2022-11-16T02:06:24.064Z,98611.09
2022-11-16T02:09:27.870Z,98612.84
2022-11-16T02:12:18.635Z,98621.41
2022-11-16T02:15:04.046Z,98617.97
2022-11-16T02:17:40.835Z,98625.69
2022-11-16T02:20:48.377Z,98620.56
2022-11-16T02:24:01.962Z,98622.25
2022-11-16T02:27:11.751Z,98624.81
2022-11-16T02:29:43.634Z,98626.56
2022-11-16T02:32:16.507Z,98626.56
2022-11-16T02:34:49.729Z,98624.84
2022-11-16T02:37:20.923Z,98630.84
2022-11-16T02:39:53.599Z,98626.56
2022-11-16T02:42:27.719Z,98645.44
2022-11-16T02:45:00.369Z,98648.84
2022-11-16T02:47:34.307Z,98630.84
2022-11-16T02:50:07.544Z,98639.38
2022-11-16T02:52:36.926Z,98653.13
2022-11-16T02:55:09.354Z,98649.69
2022-11-16T02:57:52.344Z,98653.97
2022-11-16T03:00:28.658Z,98655.69
2022-11-16T03:03:11.996Z,98638.56
2022-11-16T03:05:44.821Z,98630.84
2022-11-16T03:08:19.982Z,98624.84
2022-11-16T03:11:11.383Z,98629.97
2022-11-16T03:13:41.781Z,98641.13
2022-11-16T03:16:17.440Z,98640.28
2022-11-16T03:18:47.739Z,98647.16
2022-11-16T03:21:19.296Z,98646.25
2022-11-16T03:23:47.675Z,98641.13
2022-11-16T03:26:20.115Z,98635.94
2022-11-16T03:28:57.316Z,98635.09
2022-11-16T03:31:30.383Z,98641.09
2022-11-16T03:33:59.343Z,98630.78
2022-11-16T03:36:32.115Z,98638.50
2022-11-16T03:39:04.033Z,98638.53
2022-11-16T03:41:36.479Z,98634.25
2022-11-16T03:44:04.962Z,98640.25
2022-11-16T03:46:33.962Z,98641.94
2022-11-16T03:49:02.583Z,98635.94
2022-11-16T03:51:35.234Z,98638.53
2022-11-16T03:54:03.434Z,98632.53
2022-11-16T03:56:32.056Z,98628.22
2022-11-16T03:58:59.690Z,98617.94
2022-11-16T04:01:27.438Z,98614.53
2022-11-16T04:03:56.603Z,98628.22
2022-11-16T04:06:42.287Z,98631.63
2022-11-16T04:09:24.437Z,98641.03
2022-11-16T04:12:10.090Z,98652.19
2022-11-16T04:14:56.971Z,98645.31
2022-11-16T04:17:44.574Z,98642.78
2022-11-16T04:20:34.269Z,98636.78
2022-11-16T04:23:35.013Z,98635.09
2022-11-16T04:26:04.342Z,98626.50
2022-11-16T04:28:34.544Z,98628.22
2022-11-16T04:31:23.138Z,98626.50
2022-11-16T04:34:16.091Z,98635.09
2022-11-16T04:37:07.649Z,98641.97
2022-11-16T04:39:36.042Z,98645.38
2022-11-16T04:42:15.622Z,98639.34
2022-11-16T04:45:03.094Z,98640.19
2022-11-16T04:47:37.388Z,98657.34
2022-11-16T04:50:06.063Z,98646.19
2022-11-16T04:52:35.070Z,98646.19
2022-11-16T04:55:04.334Z,98642.75
2022-11-16T04:57:32.024Z,98641.91
2022-11-16T04:59:59.761Z,98637.59
2022-11-16T05:02:28.178Z,98640.19
2022-11-16T05:04:58.535Z,98639.31
2022-11-16T05:07:27.384Z,98648.75
2022-11-16T05:10:05.267Z,98637.59
2022-11-16T05:12:34.377Z,98642.72
2022-11-16T05:15:05.025Z,98638.41
2022-11-16T05:17:34.605Z,98635.78
2022-11-16T05:20:20.431Z,98633.19
2022-11-16T05:22:55.721Z,98640.88
2022-11-16T05:25:30.215Z,98641.69
2022-11-16T05:28:00.842Z,98639.97
2022-11-16T05:30:30.612Z,98644.22
2022-11-16T05:33:00.389Z,98653.63
2022-11-16T05:35:30.768Z,98648.47
2022-11-16T05:37:58.728Z,98653.59
2022-11-16T05:40:28.268Z,98661.31
2022-11-16T05:42:59.110Z,98659.59
2022-11-16T05:45:29.883Z,98657.94
2022-11-16T05:47:59.836Z,98658.78
2022-11-16T05:50:27.544Z,98655.34
2022-11-16T05:53:08.293Z,98656.19
2022-11-16T05:55:37.662Z,98663.88
2022-11-16T05:58:05.248Z,98670.78
2022-11-16T06:00:34.132Z,98668.28
2022-11-16T06:03:01.819Z,98675.97
2022-11-16T06:05:40.050Z,98672.59
2022-11-16T06:08:09.299Z,98674.31
2022-11-16T06:10:38.342Z,98673.47
2022-11-16T06:13:06.712Z,98676.91
2022-11-16T06:15:38.157Z,98676.06
2022-11-16T06:18:07.095Z,98683.00
2022-11-16T06:20:34.851Z,98683.88
2022-11-16T06:23:03.407Z,98683.06
2022-11-16T06:25:31.714Z,98695.06
2022-11-16T06:28:05.306Z,98692.50
2022-11-16T06:30:35.806Z,98693.38
2022-11-16T06:33:04.778Z,98696.81
2022-11-16T06:35:33.298Z,98698.56
2022-11-16T06:38:01.801Z,98700.25
2022-11-16T06:40:29.927Z,98707.97
2022-11-16T06:42:58.059Z,98708.81
2022-11-16T06:45:27.651Z,98711.44
2022-11-16T06:47:57.835Z,98716.53
2022-11-16T06:50:25.551Z,98718.31
2022-11-16T06:52:53.890Z,98731.19
2022-11-16T06:55:22.624Z,98728.66
2022-11-16T06:57:50.250Z,98726.06
2022-11-16T07:00:18.967Z,98720.06
2022-11-16T07:02:49.346Z,98725.25
2022-11-16T07:05:19.391Z,98731.28
2022-11-16T07:07:48.054Z,98738.13
2022-11-16T07:10:16.535Z,98729.56
2022-11-16T07:12:44.700Z,98730.41
2022-11-16T07:15:14.429Z,98739.84
2022-11-16T07:17:44.592Z,98738.97
2022-11-16T07:20:14.224Z,98732.97
2022-11-16T07:22:42.065Z,98740.69
2022-11-16T07:25:13.407Z,98742.41
2022-11-16T07:27:41.577Z,98747.56
2022-11-16T07:30:10.351Z,98756.16
2022-11-16T07:33:07.184Z,98756.19
2022-11-16T07:36:09.784Z,98756.19
2022-11-16T07:38:39.594Z,98758.78
2022-11-16T07:41:10.167Z,98760.56
2022-11-16T07:43:42.786Z,98766.63
2022-11-16T07:49:05.867Z,98771.00
2022-11-16T07:51:56.964Z,98776.22
2022-11-16T07:54:40.936Z,98771.91
2022-11-16T07:57:09.439Z,98764.16
2022-11-16T07:59:37.026Z,98771.91
2022-11-16T08:02:05.840Z,98781.38
2022-11-16T08:04:33.857Z,98778.78
2022-11-16T08:07:02.868Z,98789.09
2022-11-16T08:09:37.808Z,98780.53
2022-11-16T08:12:05.866Z,98781.38
2022-11-16T08:14:33.703Z,98789.97
2022-11-16T08:17:03.491Z,98776.22
2022-11-16T08:19:31.316Z,98781.38
2022-11-16T08:21:59.340Z,98778.78
2022-11-16T08:24:31.358Z,98785.66
2022-11-16T08:26:59.273Z,98781.34
2022-11-16T08:29:26.942Z,98788.22
2022-11-16T08:31:57.040Z,98778.72
2022-11-16T08:34:24.924Z,98786.47
2022-11-16T08:36:58.134Z,98778.66
2022-11-16T08:39:35.167Z,98779.47
2022-11-16T08:42:03.490Z,98776.88
2022-11-16T08:44:31.236Z,98782.94
2022-11-16T08:47:03.071Z,98779.47
2022-11-16T08:49:49.333Z,98784.63
2022-11-16T08:52:19.064Z,98783.75
2022-11-16T08:54:48.664Z,98775.91
2022-11-16T08:57:17.463Z,98785.22
2022-11-16T08:59:48.047Z,98773.91
2022-11-16T09:02:15.730Z,98774.72
2022-11-16T09:04:43.742Z,98780.63
2022-11-16T09:07:11.348Z,98775.41
2022-11-16T09:09:39.051Z,98783.91
2022-11-16T09:12:08.202Z,98785.66
2022-11-16T09:14:35.779Z,98786.06
2022-11-16T09:17:03.529Z,98789.56
2022-11-16T09:19:31.155Z,98783.56
2022-11-16T09:21:58.715Z,98780.16
2022-11-16T09:24:26.281Z,98791.38
2022-11-16T09:26:56.635Z,98782.78
2022-11-16T09:29:27.473Z,98789.66
2022-11-16T09:31:55.547Z,98785.34
2022-11-16T09:34:23.331Z,98791.31
2022-11-16T09:36:50.947Z,98794.69
2022-11-16T09:39:30.591Z,98794.75
2022-11-16T09:42:08.155Z,98795.69
2022-11-16T09:45:04.883Z,98791.44
2022-11-16T09:47:45.522Z,98789.66
2022-11-16T09:50:27.713Z,98804.25
2022-11-16T09:52:58.720Z,98796.50
2022-11-16T09:55:34.218Z,98804.16
2022-11-16T09:58:08.649Z,98795.56
2022-11-16T10:00:42.173Z,98795.50
2022-11-16T10:03:13.040Z,98795.31
2022-11-16T10:05:47.553Z,98802.06
2022-11-16T10:08:23.527Z,98796.97
2022-11-16T10:11:02.394Z,98806.38
2022-11-16T10:13:45.979Z,98790.78
2022-11-16T10:16:20.642Z,98787.03
2022-11-16T10:18:56.588Z,98788.75
2022-11-16T10:21:42.456Z,98792.78
2022-11-16T10:24:31.644Z,98785.22
2022-11-16T10:27:21.974Z,98770.72
2022-11-16T10:29:58.154Z,98772.47
2022-11-16T10:32:30.363Z,98768.97
2022-11-16T10:35:02.792Z,98762.56
2022-11-16T10:37:33.022Z,98761.03
2022-11-16T10:40:00.621Z,98751.16
2022-11-16T10:42:37.130Z,98745.63
2022-11-16T10:45:15.896Z,98744.56
2022-11-16T10:47:51.018Z,98741.97
2022-11-16T10:50:32.703Z,98737.34
2022-11-16T10:53:00.907Z,98730.19
2022-11-16T10:55:29.587Z,98731.75
2022-11-16T10:57:59.516Z,98723.19
2022-11-16T11:00:36.015Z,98738.81
2022-11-16T11:03:05.182Z,98731.75
2022-11-16T11:05:34.072Z,98736.81
2022-11-16T11:08:03.772Z,98740.16
2022-11-16T11:10:33.450Z,98734.22
2022-11-16T11:13:19.673Z,98734.19
2022-11-16T11:15:47.929Z,98733.88
2022-11-16T11:18:26.322Z,98743.13
2022-11-16T11:21:06.926Z,98735.63
2022-11-16T11:23:42.756Z,98724.31
2022-11-16T11:26:34.693Z,98732.09
2022-11-16T11:29:16.553Z,98744.13
2022-11-16T11:31:48.374Z,98732.38
2022-11-16T11:34:21.771Z,98755.94
2022-11-16T11:36:51.018Z,98728.50
2022-11-16T11:39:33.699Z,98745.06
2022-11-16T11:42:07.797Z,98732.88
2022-11-16T11:44:50.102Z,98724.25
2022-11-16T11:50:21.742Z,98731.44
2022-11-16T11:53:03.868Z,98719.91
2022-11-16T11:55:31.566Z,98722.31
2022-11-16T11:58:01.523Z,98716.09
2022-11-16T12:00:34.373Z,98711.75
2022-11-16T12:03:34.003Z,98711.38
2022-11-16T12:06:19.547Z,98718.91
2022-11-16T12:09:10.636Z,98711.31
2022-11-16T12:11:53.881Z,98718.31
2022-11-16T12:14:31.915Z,98709.28
2022-11-16T12:17:07.946Z,98691.19
2022-11-16T12:19:59.385Z,98709.72
2022-11-16T12:22:45.508Z,98692.38
2022-11-16T12:25:24.830Z,98696.06
2022-11-16T12:28:10.024Z,98688.66
2022-11-16T12:30:47.217Z,98677.38
2022-11-16T12:33:24.897Z,98671.00
2022-11-16T12:36:02.600Z,98674.91
2022-11-16T12:38:43.364Z,98671.00
2022-11-16T12:41:33.348Z,98679.91
2022-11-16T12:44:03.690Z,98674.75
2022-11-16T12:46:42.898Z,98676.47
2022-11-16T12:49:46.475Z,98669.00
2022-11-16T12:52:30.156Z,98658.47
2022-11-16T12:55:25.259Z,98664.91
2022-11-16T12:58:02.798Z,98668.66
2022-11-16T13:00:40.429Z,98666.91
2022-11-16T13:03:19.289Z,98656.81
2022-11-16T13:05:55.616Z,98658.50
2022-11-16T13:08:45.022Z,98659.97
2022-11-16T13:11:18.208Z,98665.41
2022-11-16T13:13:53.405Z,98646.94
2022-11-16T13:16:22.957Z,98657.03
2022-11-16T13:18:51.436Z,98655.59
2022-11-16T13:21:41.563Z,98656.75
2022-11-16T13:24:24.111Z,98642.09
2022-11-16T13:27:00.876Z,98642.38
2022-11-16T13:29:35.043Z,98633.47
2022-11-16T13:32:08.932Z,98623.19
2022-11-16T13:34:39.895Z,98634.03
2022-11-16T13:37:40.700Z,98634.59
2022-11-16T13:40:30.364Z,98629.03
2022-11-16T13:43:06.438Z,98637.66
2022-11-16T13:45:37.848Z,98619.44
2022-11-16T13:48:17.574Z,98632.34
2022-11-16T13:50:49.587Z,98625.94
2022-11-16T13:54:25.086Z,98628.22
2022-11-16T13:56:13.698Z,98620.28
2022-11-16T13:58:48.508Z,98608.50
2022-11-16T14:01:17.112Z,98617.13
2022-11-16T14:03:46.282Z,98609.84
2022-11-16T14:06:51.406Z,98610.75
2022-11-16T14:09:45.237Z,98589.06
2022-11-16T14:12:55.751Z,98588.59
2022-11-16T14:15:27.647Z,98575.50
2022-11-16T14:18:01.806Z,98576.28
2022-11-16T14:20:55.750Z,98572.41
2022-11-16T14:23:38.913Z,98574.81
2022-11-16T14:26:14.903Z,98573.81
2022-11-16T14:28:54.936Z,98580.28
2022-11-16T14:31:26.272Z,98584.88
2022-11-16T14:33:56.382Z,98583.06
2022-11-16T14:36:39.720Z,98584.66
2022-11-16T14:39:17.073Z,98582.09
2022-11-16T14:41:45.817Z,98580.53
2022-11-16T14:44:18.414Z,98591.00
2022-11-16T14:46:47.474Z,98584.25
2022-11-16T14:49:17.927Z,98590.97
2022-11-16T14:51:48.527Z,98587.81
2022-11-16T14:54:25.328Z,98598.78
2022-11-16T14:56:57.570Z,98599.16
2022-11-16T14:59:25.511Z,98599.44
2022-11-16T15:01:54.607Z,98589.91
2022-11-16T15:04:25.131Z,98583.31
2022-11-16T15:06:56.077Z,98577.25
2022-11-16T15:09:28.928Z,98576.63
2022-11-16T15:12:16.024Z,98575.09
2022-11-16T15:14:50.818Z,98583.19
2022-11-16T15:17:22.059Z,98568.69
2022-11-16T15:19:57.008Z,98562.94
2022-11-16T15:22:31.684Z,98563.38
2022-11-16T15:25:00.744Z,98557.56
2022-11-16T15:27:36.459Z,98544.72
2022-11-16T15:30:14.633Z,98543.34
2022-11-16T15:32:44.903Z,98553.94
2022-11-16T15:35:21.052Z,98556.06
2022-11-16T15:37:48.787Z,98554.50
2022-11-16T15:40:16.600Z,98555.47
2022-11-16T15:42:45.043Z,98548.34
2022-11-16T15:45:22.230Z,98538.88
2022-11-16T15:47:54.570Z,98532.91
2022-11-16T15:50:24.208Z,98528.78
2022-11-16T15:52:55.085Z,98529.94
2022-11-16T15:55:31.717Z,98524.03
2022-11-16T15:58:05.733Z,98524.19
2022-11-16T16:00:35.899Z,98528.66
2022-11-16T16:03:07.498Z,98530.50
2022-11-16T16:05:40.634Z,98526.28
2022-11-16T16:08:26.453Z,98526.38
2022-11-16T16:11:06.683Z,98528.97
2022-11-16T16:13:36.484Z,98531.66
2022-11-16T16:16:36.205Z,98527.44
2022-11-16T16:19:10.038Z,98535.25
2022-11-16T16:21:44.057Z,98533.59
2022-11-16T16:27:13.921Z,98527.63
2022-11-16T16:29:41.677Z,98523.38
2022-11-16T16:32:13.517Z,98523.41
2022-11-16T16:34:42.790Z,98523.44
2022-11-16T16:37:12.683Z,98513.16
2022-11-16T16:39:40.940Z,98518.34
2022-11-16T16:42:12.467Z,98516.66
2022-11-16T16:44:40.402Z,98514.97
2022-11-16T16:47:08.112Z,98519.25
2022-11-16T16:49:36.270Z,98516.69
2022-11-16T16:52:06.481Z,98523.56
2022-11-16T16:54:34.782Z,98520.13
2022-11-16T16:57:02.492Z,98513.28
2022-11-16T16:59:31.441Z,98508.09
2022-11-16T17:01:59.742Z,98514.13
2022-11-16T17:04:27.415Z,98507.28
2022-11-16T17:06:55.279Z,98507.25
2022-11-16T17:09:24.261Z,98512.44
2022-11-16T17:11:51.823Z,98497.84
2022-11-16T17:14:21.350Z,98496.16
2022-11-16T17:16:48.939Z,98497.00
2022-11-16T17:19:16.550Z,98497.91
2022-11-16T17:21:44.194Z,98511.63
2022-11-16T17:24:11.798Z,98504.78
2022-11-16T17:26:41.484Z,98502.19
2022-11-16T17:29:09.162Z,98494.44
2022-11-16T17:31:37.103Z,98497.88
2022-11-16T17:34:07.291Z,98487.59
2022-11-16T17:36:38.390Z,98481.59
2022-11-16T17:39:06.142Z,98486.72
2022-11-16T17:41:33.759Z,98484.16
2022-11-16T17:44:03.037Z,98477.28
2022-11-16T17:46:30.812Z,98473.88
2022-11-16T17:48:58.427Z,98459.28
2022-11-16T17:51:26.800Z,98461.84
2022-11-16T17:53:54.951Z,98453.28
2022-11-16T17:56:26.865Z,98459.25
2022-11-16T17:58:54.999Z,98460.13
2022-11-16T18:01:24.428Z,98446.38
2022-11-16T18:03:52.385Z,98446.38
2022-11-16T18:06:21.963Z,98443.78
2022-11-16T18:08:49.946Z,98445.53
2022-11-16T18:11:19.213Z,98443.81
2022-11-16T18:13:47.551Z,98435.22
2022-11-16T18:16:17.505Z,98430.06
2022-11-16T18:18:47.650Z,98417.19
2022-11-16T18:21:20.608Z,98424.03
2022-11-16T18:23:48.454Z,98420.63
2022-11-16T18:26:17.642Z,98413.75
2022-11-16T18:28:45.810Z,98406.06
2022-11-16T18:31:15.805Z,98410.34
2022-11-16T18:33:44.227Z,98401.78
2022-11-16T18:36:13.838Z,98403.50
2022-11-16T18:38:41.427Z,98399.22
2022-11-16T18:41:16.691Z,98394.94
2022-11-16T18:43:49.657Z,98394.09
2022-11-16T18:46:17.487Z,98396.66
2022-11-16T18:48:46.587Z,98404.38
2022-11-16T18:51:16.682Z,98402.69
2022-11-16T18:53:44.540Z,98412.13
2022-11-16T18:56:12.358Z,98401.84
2022-11-16T18:58:55.657Z,98406.97
2022-11-16T19:01:24.999Z,98408.69
2022-11-16T19:03:54.163Z,98404.41
2022-11-16T19:06:23.907Z,98397.53
2022-11-16T19:08:59.018Z,98397.53
2022-11-16T19:11:28.324Z,98400.13
2022-11-16T19:13:59.899Z,98397.50
2022-11-16T19:16:27.809Z,98406.91
2022-11-16T19:18:57.788Z,98410.34
2022-11-16T19:21:27.033Z,98413.75
2022-11-16T19:23:56.481Z,98411.19
2022-11-16T19:26:26.054Z,98409.47
2022-11-16T19:28:54.657Z,98399.19
2022-11-16T19:31:24.217Z,98407.78
2022-11-16T19:33:55.409Z,98402.63
2022-11-16T19:36:24.493Z,98415.47
2022-11-16T19:38:53.474Z,98409.53
2022-11-16T19:41:22.263Z,98417.25
2022-11-16T19:43:51.242Z,98419.84
2022-11-16T19:46:21.179Z,98416.41
2022-11-16T19:48:49.292Z,98412.97
2022-11-16T19:51:20.193Z,98407.84
2022-11-16T19:53:48.284Z,98396.69
2022-11-16T19:56:18.856Z,98384.66
2022-11-16T19:58:46.914Z,98361.53
2022-11-16T20:01:16.807Z,98372.69
2022-11-16T20:03:45.012Z,98367.50
2022-11-16T20:06:14.884Z,98379.53
2022-11-16T20:08:47.130Z,98364.09
2022-11-16T20:11:18.095Z,98374.38
2022-11-16T20:13:45.731Z,98369.25
2022-11-16T20:16:14.182Z,98366.66
2022-11-16T20:18:43.385Z,98365.81
2022-11-16T20:21:14.776Z,98376.09
2022-11-16T20:23:44.455Z,98370.97
2022-11-16T20:26:14.499Z,98368.38
2022-11-16T20:28:45.057Z,98374.41
2022-11-16T20:31:14.705Z,98367.53
2022-11-16T20:33:42.783Z,98358.94
2022-11-16T20:36:12.134Z,98355.53
2022-11-16T20:38:40.530Z,98355.53
2022-11-16T20:41:09.694Z,98355.53
2022-11-16T20:43:39.169Z,98346.97
2022-11-16T20:46:09.222Z,98343.50
2022-11-16T20:48:36.939Z,98333.25
2022-11-16T20:51:04.952Z,98334.97
2022-11-16T20:53:33.519Z,98336.66
2022-11-16T20:56:03.011Z,98330.69
2022-11-16T20:58:30.961Z,98327.25
2022-11-16T21:01:00.898Z,98328.09
2022-11-16T21:03:29.995Z,98331.50
2022-11-16T21:05:57.922Z,98322.94
2022-11-16T21:08:25.840Z,98321.25
2022-11-16T21:10:54.035Z,98322.94
2022-11-16T21:13:39.918Z,98318.66
2022-11-16T21:16:11.179Z,98319.50
2022-11-16T21:18:40.915Z,98313.50
2022-11-16T21:21:09.945Z,98307.53
2022-11-16T21:23:39.016Z,98308.38
2022-11-16T21:26:08.731Z,98310.09
2022-11-16T21:28:36.447Z,98308.38
2022-11-16T21:31:06.072Z,98302.38
2022-11-16T21:33:34.181Z,98309.25
2022-11-16T21:36:06.330Z,98307.50
2022-11-16T21:38:35.068Z,98298.94
2022-11-16T21:41:04.214Z,98294.63
2022-11-16T21:43:33.759Z,98299.78
2022-11-16T21:46:03.810Z,98299.78
2022-11-16T21:48:33.832Z,98304.06
2022-11-16T21:51:01.963Z,98300.63
2022-11-16T21:53:31.386Z,98295.47
2022-11-16T21:55:59.096Z,98292.91
2022-11-16T21:58:27.158Z,98286.91
2022-11-16T22:00:56.030Z,98279.19
2022-11-16T22:03:24.113Z,98275.75
2022-11-16T22:06:12.595Z,98270.63
2022-11-16T22:08:41.654Z,98276.63
2022-11-16T22:11:10.563Z,98274.03
2022-11-16T22:13:39.150Z,98278.34
2022-11-16T22:16:07.670Z,98272.31
2022-11-16T22:18:35.672Z,98270.59
2022-11-16T22:21:03.914Z,98274.03
2022-11-16T22:23:32.375Z,98266.34
2022-11-16T22:26:12.803Z,98261.16
2022-11-16T22:28:40.597Z,98260.31
2022-11-16T22:31:10.232Z,98254.31
2022-11-16T22:33:38.261Z,98254.28
2022-11-16T22:36:08.197Z,98260.28
2022-11-16T22:38:35.973Z,98253.44
2022-11-16T22:41:03.659Z,98253.41
2022-11-16T22:43:33.156Z,98244.84
2022-11-16T22:46:02.822Z,98241.38
2022-11-16T22:48:32.100Z,98238.78
2022-11-16T22:51:04.814Z,98231.91
2022-11-16T22:53:32.850Z,98238.78
2022-11-16T22:56:05.292Z,98242.22
2022-11-16T22:58:34.319Z,98227.66
2022-11-16T23:01:01.939Z,98218.22
2022-11-16T23:03:29.797Z,98221.66
2022-11-16T23:05:57.662Z,98214.81
2022-11-16T23:08:25.679Z,98214.81
2022-11-16T23:11:20.546Z,98224.28
2022-11-16T23:14:07.475Z,98201.06
2022-11-16T23:16:35.378Z,98206.22
2022-11-16T23:19:03.108Z,98202.81
2022-11-16T23:21:48.293Z,98189.09
2022-11-16T23:24:33.733Z,98186.47
2022-11-16T23:27:20.950Z,98177.88
2022-11-16T23:29:50.250Z,98168.50
2022-11-16T23:32:17.992Z,98163.31
2022-11-16T23:34:45.543Z,98153.03
2022-11-16T23:37:13.139Z,98144.44
2022-11-16T23:39:40.720Z,98134.13
2022-11-16T23:42:26.749Z,98128.16
2022-11-16T23:44:55.985Z,98132.44
2022-11-16T23:47:23.839Z,98129.06
2022-11-16T23:49:51.417Z,98128.16
2022-11-16T23:52:19.011Z,98141.09
2022-11-16T23:54:46.591Z,98125.63
2022-11-16T23:57:14.196Z,98129.06
2022-11-16T23:59:41.764Z,98131.63
